Time;durP1;ratioP1;P1;durP2;ratioP2;P2;SDS_P1;SDS_P2;PMS_P1;PMS_P2;Temp;Humidity;BMP_temperature;BMP_pressure;BME280_temperature;BME280_humidity;BME280_pressure;Samples;Min_cycle;Max_cycle;Signal;HPM_P1;HPM_P2
2022/04/14 00:01:59;;;;;;;1.70;0.40;;;;;;;22.96;43.77;102083.44;5040811;28;20024;-70
2022/04/14 00:04:24;;;;;;;1.20;0.28;;;;;;;22.97;44.22;102079.66;5033168;28;20484;-70
2022/04/14 00:06:50;;;;;;;0.77;0.20;;;;;;;23.00;44.62;102076.56;5032410;28;20372;-71
2022/04/14 00:09:15;;;;;;;1.80;0.35;;;;;;;22.98;44.37;102078.63;5032257;28;20048;-69
2022/04/14 00:11:40;;;;;;;2.72;0.52;;;;;;;22.99;43.54;102072.13;5032182;28;20523;-71
2022/04/14 00:14:06;;;;;;;3.42;0.85;;;;;;;23.00;43.48;102071.09;5032137;28;20045;-70
2022/04/14 00:16:32;;;;;;;3.45;0.47;;;;;;;22.98;43.76;102070.41;5032359;28;20018;-70
2022/04/14 00:18:57;;;;;;;1.85;0.40;;;;;;;22.98;43.37;102080.53;5032216;28;20032;-72
2022/04/14 00:21:23;;;;;;;0.85;0.30;;;;;;;22.97;43.85;102074.19;5031983;28;20017;-71
2022/04/14 00:23:48;;;;;;;1.60;0.40;;;;;;;23.00;44.00;102072.97;5032971;28;20026;-66
2022/04/14 00:26:13;;;;;;;1.83;0.30;;;;;;;23.00;43.63;102065.59;5034391;28;20100;-71
2022/04/14 00:28:39;;;;;;;2.95;0.68;;;;;;;22.99;43.54;102074.88;5032023;28;20059;-70
2022/04/14 00:31:04;;;;;;;1.45;0.17;;;;;;;23.02;43.95;102069.06;5032078;28;20453;-70
2022/04/14 00:33:30;;;;;;;0.82;0.20;;;;;;;23.02;43.29;102074.53;5031842;28;20032;-70
2022/04/14 00:35:56;;;;;;;2.25;0.20;;;;;;;23.02;43.90;102069.06;5030845;28;20032;-71
2022/04/14 00:38:21;;;;;;;1.88;0.20;;;;;;;23.08;44.33;102057.38;5040707;28;20029;-70
2022/04/14 00:40:48;;;;;;;1.38;0.30;;;;;;;23.06;44.48;102061.34;5032711;28;20033;-71
2022/04/14 00:43:13;;;;;;;3.05;0.38;;;;;;;23.03;45.25;102057.06;5032581;28;20029;-71
2022/04/14 00:45:39;;;;;;;1.38;0.20;;;;;;;22.97;45.71;102055.00;5030500;28;20492;-70
2022/04/14 00:48:04;;;;;;;0.40;0.15;;;;;;;22.95;46.59;102054.31;5031898;28;20036;-70
2022/04/14 00:50:29;;;;;;;0.63;0.28;;;;;;;23.00;46.58;102051.88;5031705;28;20029;-72
2022/04/14 00:52:55;;;;;;;1.65;0.30;;;;;;;22.99;46.46;102046.59;5031732;28;20046;-70
2022/04/14 00:55:20;;;;;;;1.40;0.30;;;;;;;23.01;46.60;102050.00;5031665;28;20048;-71
2022/04/14 00:57:46;;;;;;;1.13;0.40;;;;;;;22.87;46.49;102048.00;5033891;28;20457;-71
2022/04/14 01:00:12;;;;;;;1.38;0.28;;;;;;;22.77;46.24;102045.38;5030491;28;20067;-70
2022/04/14 01:02:37;;;;;;;0.10;0.10;;;;;;;22.72;45.25;102042.31;5031665;28;20033;-70
2022/04/14 01:05:06;;;;;;;0.30;0.20;;;;;;;22.60;45.51;102032.69;5035460;28;20029;-71
2022/04/14 01:07:35;;;;;;;1.00;0.30;;;;;;;22.57;45.27;102022.94;5035197;28;20420;-71
2022/04/14 01:10:02;;;;;;;1.60;0.15;;;;;;;22.54;45.07;102014.22;5034070;28;20025;-70
2022/04/14 01:12:30;;;;;;;0.60;0.20;;;;;;;22.58;45.50;102012.84;5049886;28;20021;-70
2022/04/14 01:14:55;;;;;;;3.85;0.47;;;;;;;22.58;45.43;102012.84;5033909;28;20029;-71
2022/04/14 01:17:20;;;;;;;1.95;0.35;;;;;;;22.61;45.65;102009.75;5034976;28;20518;-70
2022/04/14 01:19:46;;;;;;;1.30;0.30;;;;;;;22.56;45.31;102003.94;5035106;28;20029;-70
2022/04/14 01:22:30;;;;;;;1.05;0.40;;;;;;;22.56;44.99;102015.75;5033991;28;20365;-70
2022/04/14 01:24:58;;;;;;;0.67;0.30;;;;;;;22.52;44.99;102015.25;5033778;28;20064;-71
2022/04/14 01:27:24;;;;;;;0.82;0.30;;;;;;;22.45;44.72;102003.22;5034838;28;20025;-71
2022/04/14 01:29:53;;;;;;;0.93;0.20;;;;;;;22.50;44.88;101989.84;5033616;28;20021;-71
2022/04/14 01:32:19;;;;;;;1.02;0.30;;;;;;;22.54;44.69;101995.03;5033416;28;20021;-70
2022/04/14 01:34:45;;;;;;;0.65;0.28;;;;;;;22.44;44.49;101993.28;5034668;28;20030;-70
2022/04/14 01:37:10;;;;;;;0.82;0.40;;;;;;;22.52;44.73;101982.34;5040486;28;20037;-71
2022/04/14 01:39:35;;;;;;;0.55;0.30;;;;;;;22.50;44.76;101978.91;5032457;28;20096;-71
2022/04/14 01:42:01;;;;;;;0.10;0.10;;;;;;;22.41;44.48;101973.59;5033711;28;20381;-70
2022/04/14 01:44:26;;;;;;;1.23;0.30;;;;;;;22.41;44.03;101973.59;5033191;28;20033;-71
2022/04/14 01:46:51;;;;;;;1.13;0.20;;;;;;;22.44;44.09;101968.63;5040612;28;20033;-71
2022/04/14 01:49:16;;;;;;;1.40;0.15;;;;;;;22.39;44.31;101957.34;5034421;28;20033;-70
2022/04/14 01:51:42;;;;;;;2.78;0.98;;;;;;;22.46;44.59;101954.75;5034227;28;20401;-71
2022/04/14 01:54:07;;;;;;;0.40;0.10;;;;;;;22.47;44.52;101951.84;5034410;28;20065;-71
2022/04/14 01:56:33;;;;;;;2.13;0.70;;;;;;;22.43;43.88;101955.09;5032944;28;20025;-70
2022/04/14 01:58:58;;;;;;;2.20;0.50;;;;;;;22.46;44.70;101950.13;5033130;28;20468;-70
2022/04/14 02:01:24;;;;;;;0.50;0.20;;;;;;;22.38;44.67;101958.38;5034128;28;20048;-71
2022/04/14 02:03:50;;;;;;;1.55;0.35;;;;;;;22.41;44.38;101960.75;5034233;28;20068;-70
2022/04/14 02:06:16;;;;;;;0.40;0.20;;;;;;;22.41;45.32;101957.16;5034168;28;20447;-70
2022/04/14 02:08:42;;;;;;;0.75;0.25;;;;;;;22.40;45.11;101966.41;5034199;28;20048;-69
2022/04/14 02:11:11;;;;;;;1.13;0.30;;;;;;;22.37;44.77;101962.16;5032936;28;20029;-70
2022/04/14 02:13:36;;;;;;;0.35;0.20;;;;;;;22.44;44.44;101970.53;5033813;28;20120;-70
2022/04/14 02:16:02;;;;;;;1.55;0.38;;;;;;;22.39;45.01;101968.31;5033011;28;20117;-71
2022/04/14 02:18:28;;;;;;;0.50;0.20;;;;;;;22.41;44.39;101958.03;5034035;28;20539;-71
2022/04/14 02:20:53;;;;;;;0.38;0.10;;;;;;;22.41;44.68;101952.53;5039162;28;20033;-71
2022/04/14 02:23:19;;;;;;;1.90;0.35;;;;;;;22.43;44.52;101945.00;5033717;28;20013;-71
2022/04/14 02:25:45;;;;;;;0.60;0.20;;;;;;;22.41;44.87;101941.59;5033803;28;20029;-70
2022/04/14 02:28:11;;;;;;;0.65;0.10;;;;;;;22.35;45.37;101953.25;5032452;28;20465;-69
2022/04/14 02:30:36;;;;;;;0.10;0.10;;;;;;;22.40;45.36;101950.84;5032314;28;20025;-72
2022/04/14 02:33:02;;;;;;;0.68;0.10;;;;;;;22.38;44.66;101930.97;5033665;28;20513;-70
2022/04/14 02:35:27;;;;;;;1.77;0.50;;;;;;;22.42;44.70;101932.34;5033676;28;20520;-71
2022/04/14 02:37:55;;;;;;;1.95;0.30;;;;;;;22.43;44.89;101941.41;5033648;28;20027;-70
2022/04/14 02:40:20;;;;;;;1.25;0.30;;;;;;;22.45;44.94;101940.22;5032087;28;20397;-70
2022/04/14 02:42:46;;;;;;;0.98;0.40;;;;;;;22.47;44.48;101935.41;5033241;28;20024;-70
2022/04/14 02:45:12;;;;;;;1.90;0.63;;;;;;;22.45;45.52;101926.50;5032194;28;20057;-70
2022/04/14 02:47:37;;;;;;;0.88;0.40;;;;;;;22.51;44.60;101925.84;5033351;28;20555;-70
2022/04/14 02:50:03;;;;;;;1.42;0.50;;;;;;;22.50;45.03;101929.56;5033459;28;20527;-70
2022/04/14 02:52:28;;;;;;;1.30;0.25;;;;;;;22.46;45.17;101928.22;5032945;28;20053;-70
2022/04/14 02:54:54;;;;;;;1.27;0.35;;;;;;;22.57;45.79;101923.41;5037229;28;20491;-70
2022/04/14 02:57:19;;;;;;;1.65;0.45;;;;;;;22.61;45.04;101924.78;5033004;28;20028;-70
2022/04/14 02:59:44;;;;;;;1.15;0.20;;;;;;;22.65;44.88;101917.91;5031989;28;20087;-70
2022/04/14 03:02:09;;;;;;;1.88;0.47;;;;;;;22.65;45.46;101912.44;5033129;28;20047;-71
2022/04/14 03:04:35;;;;;;;1.73;0.50;;;;;;;22.69;45.38;101917.41;5032885;28;20021;-66
2022/04/14 03:07:00;;;;;;;2.88;0.63;;;;;;;22.70;44.85;101908.16;5038114;28;20494;-70
2022/04/14 03:09:25;;;;;;;1.75;0.40;;;;;;;22.70;45.57;101901.81;5032880;28;20053;-71
2022/04/14 03:11:50;;;;;;;2.58;0.52;;;;;;;22.68;45.16;101887.44;5032998;28;20465;-70
2022/04/14 03:14:16;;;;;;;1.33;0.40;;;;;;;22.73;44.77;101885.00;5032696;28;20025;-70
2022/04/14 03:16:41;;;;;;;2.55;0.57;;;;;;;22.72;45.03;101877.81;5033489;28;20037;-71
2022/04/14 03:19:06;;;;;;;2.08;0.22;;;;;;;22.72;45.53;101861.38;5032861;28;20029;-71
2022/04/14 03:21:31;;;;;;;1.45;0.20;;;;;;;22.76;45.57;101870.94;5031376;28;20071;-69
2022/04/14 03:23:57;;;;;;;1.08;0.20;;;;;;;22.76;45.71;101868.22;5031639;28;20457;-70
2022/04/14 03:26:22;;;;;;;0.80;0.40;;;;;;;22.76;45.66;101857.25;5045423;28;20040;-70
2022/04/14 03:28:47;;;;;;;1.15;0.70;;;;;;;22.80;45.80;101853.09;5033609;28;20457;-69
2022/04/14 03:31:13;;;;;;;3.50;0.57;;;;;;;22.79;45.81;101851.41;5030410;28;20112;-70
2022/04/14 03:33:38;;;;;;;1.83;0.80;;;;;;;22.80;46.04;101843.00;5031481;28;20022;-70
2022/04/14 03:36:04;;;;;;;1.13;0.20;;;;;;;22.84;45.88;101848.16;5037811;28;20029;-65
2022/04/14 03:38:31;;;;;;;1.33;0.28;;;;;;;22.87;45.93;101843.19;5038477;28;20057;-70
2022/04/14 03:40:59;;;;;;;1.38;0.25;;;;;;;22.92;46.02;101840.75;5032587;28;20105;-70
2022/04/14 03:43:24;;;;;;;0.35;0.20;;;;;;;22.91;47.12;101839.06;5032325;28;20020;-69
2022/04/14 03:45:50;;;;;;;0.50;0.25;;;;;;;22.79;47.10;101841.28;5032610;28;20025;-70
2022/04/14 03:48:15;;;;;;;0.28;0.10;;;;;;;22.70;48.35;101830.53;5032363;28;20025;-71
2022/04/14 03:50:40;;;;;;;1.10;0.20;;;;;;;22.77;49.82;101831.53;5031146;28;20037;-69
2022/04/14 03:53:05;;;;;;;0.73;0.10;;;;;;;22.79;49.42;101829.47;5030996;28;20132;-70
2022/04/14 03:55:31;;;;;;;0.52;0.10;;;;;;;22.84;49.55;101827.06;5032302;28;20034;-70
2022/04/14 03:57:56;;;;;;;0.60;0.10;;;;;;;22.76;49.66;101824.34;5030995;28;20104;-70
2022/04/14 04:00:21;;;;;;;1.27;0.30;;;;;;;22.66;50.09;101826.41;5034209;28;20083;-70
2022/04/14 04:02:47;;;;;;;0.50;0.10;;;;;;;22.73;48.19;101813.75;5030993;28;20493;-70
2022/04/14 04:05:12;;;;;;;0.75;0.20;;;;;;;22.85;47.73;101817.00;5032225;28;20025;-72
2022/04/14 04:07:37;;;;;;;0.10;0.10;;;;;;;22.92;47.43;101818.81;5032270;28;20388;-71
2022/04/14 04:10:04;;;;;;;0.10;0.10;;;;;;;22.96;47.12;101824.81;5043276;28;20028;-68
2022/04/14 04:12:30;;;;;;;0.70;0.17;;;;;;;22.95;46.27;101818.47;5035725;28;20164;-70
2022/04/14 04:14:55;;;;;;;1.75;0.30;;;;;;;23.02;46.50;101813.13;5032199;28;20112;-71
2022/04/14 04:17:20;;;;;;;0.68;0.10;;;;;;;23.03;46.04;101803.88;5030801;28;20026;-71
2022/04/14 04:19:45;;;;;;;0.85;0.10;;;;;;;23.05;45.70;101808.16;5030879;28;20030;-70
2022/04/14 04:22:11;;;;;;;0.63;0.10;;;;;;;23.08;45.67;101807.78;5032195;28;20041;-70
2022/04/14 04:24:37;;;;;;;0.30;0.10;;;;;;;23.11;45.71;101807.41;5032081;28;20021;-71
2022/04/14 04:27:03;;;;;;;1.33;0.10;;;;;;;23.14;46.01;101805.34;5032147;28;20036;-70
2022/04/14 04:29:28;;;;;;;1.05;0.20;;;;;;;23.16;45.26;101797.78;5034058;28;20065;-69
2022/04/14 04:31:53;;;;;;;0.57;0.30;;;;;;;23.18;45.58;101790.22;5032067;28;20037;-70
2022/04/14 04:34:19;;;;;;;3.17;0.32;;;;;;;23.20;45.19;101797.28;5031867;28;20022;-70
2022/04/14 04:36:44;;;;;;;0.75;0.20;;;;;;;23.21;45.99;101789.88;5030909;28;20483;-66
2022/04/14 04:39:10;;;;;;;1.25;0.38;;;;;;;23.27;45.64;101789.16;5034841;28;20475;-70
2022/04/14 04:41:35;;;;;;;1.45;0.55;;;;;;;23.25;46.01;101780.25;5035741;28;20031;-70
2022/04/14 04:44:00;;;;;;;3.03;0.40;;;;;;;23.28;45.07;101785.38;5035890;28;20026;-70
2022/04/14 04:46:25;;;;;;;0.08;0.00;;;;;;;23.28;45.98;101785.38;5034306;28;20032;-70
2022/04/14 04:48:51;;;;;;;2.05;0.40;;;;;;;23.31;46.28;101785.00;5034305;28;20392;-70
2022/04/14 04:51:17;;;;;;;1.65;0.57;;;;;;;23.32;46.04;101781.22;5035372;28;20033;-70
2022/04/14 04:53:42;;;;;;;0.73;0.30;;;;;;;23.32;46.00;101778.47;5035536;28;20033;-70
2022/04/14 04:56:08;;;;;;;1.20;0.28;;;;;;;23.32;46.39;101775.75;5034214;28;20518;-70
2022/04/14 04:58:33;;;;;;;1.77;0.40;;;;;;;23.35;45.98;101768.03;5041457;28;20010;-70
2022/04/14 05:00:58;;;;;;;0.77;0.17;;;;;;;23.38;46.14;101764.91;5034187;28;20025;-70
2022/04/14 05:03:23;;;;;;;1.27;0.40;;;;;;;23.41;45.76;101769.16;5034006;28;20070;-70
2022/04/14 05:05:49;;;;;;;0.45;0.20;;;;;;;23.46;46.05;101769.47;5034080;28;20023;-70
2022/04/14 05:08:15;;;;;;;1.65;0.32;;;;;;;23.49;45.75;101766.34;5034000;28;20492;-70
2022/04/14 05:10:40;;;;;;;1.85;0.43;;;;;;;23.51;45.60;101758.78;5037944;28;20092;-67
2022/04/14 05:13:05;;;;;;;2.13;0.60;;;;;;;23.53;45.78;101759.47;5035782;28;20159;-70
2022/04/14 05:15:31;;;;;;;2.63;0.40;;;;;;;23.58;45.78;101773.53;5033723;28;20025;-70
2022/04/14 05:17:56;;;;;;;1.33;0.65;;;;;;;23.54;45.78;101761.19;5035233;28;20029;-69
2022/04/14 05:20:22;;;;;;;2.00;0.35;;;;;;;23.55;46.23;101754.66;5033681;28;20025;-70
2022/04/14 05:22:47;;;;;;;0.40;0.20;;;;;;;23.53;46.26;101762.22;5034028;28;20448;-70
2022/04/14 05:25:12;;;;;;;2.78;0.55;;;;;;;23.56;45.08;101766.47;5033620;28;20433;-70
2022/04/14 05:27:39;;;;;;;1.95;0.40;;;;;;;23.53;46.15;101767.72;5039035;28;20031;-70
2022/04/14 05:30:05;;;;;;;1.20;0.30;;;;;;;23.56;46.14;101766.47;5033709;28;20026;-69
2022/04/14 05:32:30;;;;;;;1.23;0.30;;;;;;;23.59;46.43;101761.50;5034595;28;20021;-70
2022/04/14 05:34:56;;;;;;;1.15;0.25;;;;;;;23.62;46.48;101750.16;5034714;28;20465;-69
2022/04/14 05:37:21;;;;;;;0.93;0.30;;;;;;;23.65;46.38;101744.28;5033339;28;20075;-69
2022/04/14 05:39:46;;;;;;;1.00;0.60;;;;;;;23.63;46.21;101740.03;5033560;28;20036;-70
2022/04/14 05:42:12;;;;;;;0.45;0.35;;;;;;;23.67;46.44;101742.22;5033443;28;20044;-70
2022/04/14 05:44:37;;;;;;;2.47;0.30;;;;;;;23.73;45.82;101728.81;5033244;28;20513;-70
2022/04/14 05:47:02;;;;;;;1.42;0.40;;;;;;;23.72;45.66;101733.44;5035688;28;20426;-66
2022/04/14 05:49:28;;;;;;;2.65;0.52;;;;;;;23.71;46.02;101731.72;5036208;28;20112;-67
2022/04/14 05:51:53;;;;;;;3.90;0.40;;;;;;;23.74;46.38;101725.00;5033568;28;20049;-70
2022/04/14 05:54:18;;;;;;;1.10;0.30;;;;;;;23.79;45.73;101731.63;5034216;28;20377;-70
2022/04/14 05:56:44;;;;;;;0.90;0.30;;;;;;;23.79;46.17;101736.28;5040350;28;20026;-70
2022/04/14 05:59:16;;;;;;;2.95;0.88;;;;;;;23.77;46.01;101739.22;5035008;28;20091;-69
2022/04/14 06:01:42;;;;;;;1.55;0.55;;;;;;;23.80;46.13;101735.25;5033053;28;20069;-70
2022/04/14 06:04:08;;;;;;;2.08;0.32;;;;;;;23.84;45.70;101744.81;5034354;28;20461;-69
2022/04/14 06:06:33;;;;;;;1.63;0.40;;;;;;;23.81;45.74;101748.78;5034447;28;20030;-70
2022/04/14 06:08:58;;;;;;;1.20;0.55;;;;;;;23.86;46.36;101743.59;5034198;28;20031;-70
2022/04/14 06:11:23;;;;;;;3.80;0.68;;;;;;;23.86;45.44;101729.88;5033924;28;20033;-69
2022/04/14 06:13:49;;;;;;;2.67;0.80;;;;;;;23.92;45.23;101725.53;5034157;28;20029;-70
2022/04/14 06:16:14;;;;;;;3.55;0.77;;;;;;;23.87;46.01;101714.25;5032728;28;20442;-69
2022/04/14 06:18:39;;;;;;;1.65;0.30;;;;;;;23.92;46.32;101706.28;5032779;28;20021;-67
2022/04/14 06:21:04;;;;;;;1.45;0.50;;;;;;;23.99;46.08;101708.09;5038324;28;20006;-69
2022/04/14 06:23:30;;;;;;;2.28;0.50;;;;;;;24.05;46.11;101717.50;5042090;28;20096;-69
2022/04/14 06:25:55;;;;;;;2.13;0.32;;;;;;;24.04;46.38;101718.53;5032654;28;20041;-69
2022/04/14 06:28:20;;;;;;;1.30;0.38;;;;;;;24.07;46.42;101720.91;5033679;28;20372;-69
2022/04/14 06:30:46;;;;;;;1.25;0.20;;;;;;;24.10;45.75;101725.16;5033749;28;20022;-69
2022/04/14 06:33:12;;;;;;;2.13;0.28;;;;;;;24.11;46.07;101722.22;5033655;28;20032;-69
2022/04/14 06:35:37;;;;;;;1.95;0.20;;;;;;;24.17;46.37;101721.44;5033661;28;20052;-69
2022/04/14 06:38:02;;;;;;;2.28;0.40;;;;;;;24.14;45.66;101704.50;5033686;28;20457;-69
2022/04/14 06:40:28;;;;;;;2.08;0.57;;;;;;;24.19;44.73;101699.31;5033452;28;20029;-69
2022/04/14 06:42:53;;;;;;;2.75;0.38;;;;;;;24.17;45.60;101710.47;5033584;28;20017;-69
2022/04/14 06:45:19;;;;;;;1.88;0.47;;;;;;;24.19;45.43;101719.41;5033400;28;20071;-69
2022/04/14 06:47:44;;;;;;;1.38;0.60;;;;;;;24.22;45.56;101724.50;5034420;28;20063;-69
2022/04/14 06:50:10;;;;;;;0.55;0.30;;;;;;;24.21;45.01;101722.81;5034895;28;20029;-69
2022/04/14 06:52:39;;;;;;;2.45;0.32;;;;;;;24.23;45.38;101715.22;5034360;28;20049;-69
2022/04/14 06:55:06;;;;;;;4.47;0.85;;;;;;;24.23;46.16;101706.97;5033264;28;20034;-69
2022/04/14 06:57:31;;;;;;;1.67;0.50;;;;;;;24.30;45.36;101715.34;5033359;28;20018;-69
2022/04/14 06:59:57;;;;;;;5.53;0.98;;;;;;;24.31;44.16;101722.53;5033313;28;20079;-69
2022/04/14 07:02:22;;;;;;;0.70;0.32;;;;;;;24.30;45.14;101716.19;5032754;28;20098;-69
2022/04/14 07:04:48;;;;;;;1.48;0.43;;;;;;;24.38;44.13;101718.00;5033088;28;20022;-69
2022/04/14 07:07:13;;;;;;;2.83;0.30;;;;;;;24.38;45.22;101720.75;5031811;28;20376;-69
2022/04/14 07:09:38;;;;;;;1.50;0.30;;;;;;;24.35;45.95;101728.50;5033255;28;20461;-68
2022/04/14 07:12:04;;;;;;;1.20;0.30;;;;;;;24.41;46.39;101727.75;5031772;28;20071;-69
2022/04/14 07:14:30;;;;;;;2.50;0.32;;;;;;;24.37;45.25;101731.94;5031523;28;20040;-69
2022/04/14 07:16:57;;;;;;;1.20;0.40;;;;;;;24.30;46.46;101732.69;5032923;28;20025;-69
2022/04/14 07:19:23;;;;;;;1.10;0.20;;;;;;;24.22;46.07;101746.50;5032920;28;20025;-66
2022/04/14 07:21:48;;;;;;;0.80;0.22;;;;;;;24.17;46.58;101743.44;5035104;28;20040;-66
2022/04/14 07:24:14;;;;;;;2.03;0.47;;;;;;;24.17;46.63;101743.44;5032498;28;20044;-69
2022/04/14 07:26:39;;;;;;;0.85;0.30;;;;;;;24.10;46.31;101733.41;5037080;28;20021;-69
2022/04/14 07:29:05;;;;;;;1.17;0.35;;;;;;;24.08;47.10;101744.56;5032735;28;20021;-69
2022/04/14 07:31:35;;;;;;;3.95;0.73;;;;;;;24.02;47.61;101734.34;5032655;28;20372;-69
2022/04/14 07:34:02;;;;;;;1.42;0.52;;;;;;;24.00;47.69;101733.66;5031365;28;20018;-69
2022/04/14 07:36:27;;;;;;;1.70;0.68;;;;;;;24.06;46.67;101732.06;5031244;28;20083;-69
2022/04/14 07:38:52;;;;;;;4.05;0.98;;;;;;;24.03;46.03;101732.47;5031305;28;20060;-69
2022/04/14 07:41:18;;;;;;;1.77;0.38;;;;;;;24.02;46.37;101734.34;5031260;28;20375;-69
2022/04/14 07:43:43;;;;;;;2.10;0.40;;;;;;;24.04;45.89;101735.00;5031288;28;20028;-69
2022/04/14 07:46:08;;;;;;;2.53;0.65;;;;;;;24.06;45.24;101729.34;5032607;28;20380;-69
2022/04/14 07:48:34;;;;;;;2.15;0.60;;;;;;;24.07;46.34;101731.03;5032454;28;20067;-69
2022/04/14 07:51:01;;;;;;;6.60;1.23;;;;;;;24.07;45.57;101725.53;5032451;28;20037;-69
2022/04/14 07:53:26;;;;;;;1.77;0.60;;;;;;;24.06;45.12;101730.19;5030807;28;20068;-69
2022/04/14 07:55:52;;;;;;;2.78;0.43;;;;;;;24.02;44.87;101731.59;5031125;28;20472;-69
2022/04/14 07:58:17;;;;;;;1.48;0.32;;;;;;;24.04;45.87;101726.78;5032233;28;20072;-69
2022/04/14 08:00:42;;;;;;;1.30;0.20;;;;;;;24.01;45.68;101727.13;5030999;28;20033;-69
2022/04/14 08:03:09;;;;;;;1.17;0.35;;;;;;;24.05;46.89;101724.88;5036362;28;20026;-69
2022/04/14 08:05:42;;;;;;;3.10;0.65;;;;;;;24.05;46.81;101717.50;5041716;28;20026;-69
2022/04/14 08:08:10;;;;;;;1.08;0.20;;;;;;;24.08;46.55;101716.25;5032411;28;20159;-69
2022/04/14 08:10:36;;;;;;;1.58;0.40;;;;;;;24.07;46.76;101715.41;5032192;28;20063;-69
2022/04/14 08:13:02;;;;;;;1.40;0.20;;;;;;;24.08;46.50;101714.38;5034527;28;20067;-68
2022/04/14 08:15:29;;;;;;;2.08;0.25;;;;;;;24.10;46.07;101714.16;5036202;28;20431;-69
2022/04/14 08:17:55;;;;;;;3.65;0.40;;;;;;;;;;5036244;28;20037;-68
2022/04/14 08:20:21;;;;;;;1.88;0.50;;;;;;;24.09;46.26;101699.59;5036042;28;20100;-69
2022/04/14 08:22:51;;;;;;;3.47;0.52;;;;;;;24.11;44.76;101696.66;5035979;28;20151;-69
2022/04/14 08:25:19;;;;;;;2.28;0.70;;;;;;;24.10;46.19;101697.69;5034714;28;20120;-69
2022/04/14 08:27:46;;;;;;;4.28;0.57;;;;;;;24.14;45.85;101702.59;5034821;28;20021;-68
2022/04/14 08:30:12;;;;;;;2.40;0.70;;;;;;;24.15;45.94;101703.47;5035947;28;20376;-68
2022/04/14 08:32:38;;;;;;;0.77;0.20;;;;;;;24.17;45.68;101704.97;5035915;28;20022;-69
2022/04/14 08:35:03;;;;;;;1.17;0.45;;;;;;;24.12;46.59;101696.44;5034580;28;20033;-69
2022/04/14 08:37:29;;;;;;;2.28;0.90;;;;;;;24.14;46.08;101702.59;5035769;28;20037;-68
2022/04/14 08:39:54;;;;;;;2.17;0.38;;;;;;;24.14;46.23;101688.88;5035979;28;20487;-69
2022/04/14 08:42:35;;;;;;;3.20;0.95;;;;;;;24.15;46.42;101693.31;5041502;28;20079;-69
2022/04/14 08:45:03;;;;;;;0.30;0.20;;;;;;;24.20;45.85;101704.63;5035811;28;20025;-69
2022/04/14 08:47:29;;;;;;;2.50;0.52;;;;;;;24.20;45.83;101715.59;5034303;28;20091;-68
2022/04/14 08:49:57;;;;;;;2.65;0.60;;;;;;;24.23;46.71;101684.16;5034596;28;20099;-68
2022/04/14 08:52:24;;;;;;;0.32;0.20;;;;;;;24.28;45.79;101712.75;5034447;28;20045;-66
2022/04/14 08:54:50;;;;;;;2.58;0.60;;;;;;;24.28;45.73;101712.75;5034520;28;20022;-68
2022/04/14 08:57:17;;;;;;;2.65;0.70;;;;;;;24.29;45.39;101709.00;5035353;28;20029;-68
2022/04/14 08:59:43;;;;;;;1.17;0.38;;;;;;;24.33;46.03;101708.59;5035521;28;20108;-68
2022/04/14 09:02:14;;;;;;;1.88;0.38;;;;;;;24.35;45.44;101712.00;5034263;28;20036;-68
2022/04/14 09:04:41;;;;;;;0.45;0.17;;;;;;;24.34;46.17;101710.31;5034105;28;20017;-68
2022/04/14 09:07:08;;;;;;;1.48;0.43;;;;;;;24.35;46.43;101723.84;5035733;28;20033;-69
2022/04/14 09:09:33;;;;;;;1.27;0.47;;;;;;;24.39;46.10;101724.34;5035197;28;20018;-69
2022/04/14 09:11:59;;;;;;;1.95;0.32;;;;;;;24.38;45.72;101722.66;5035434;28;20108;-68
2022/04/14 09:14:24;;;;;;;3.53;0.60;;;;;;;24.40;46.13;101724.16;5035021;28;20025;-69
2022/04/14 09:16:50;;;;;;;3.13;0.40;;;;;;;24.42;46.18;101729.47;5035164;28;20029;-69
2022/04/14 09:19:16;;;;;;;1.25;0.38;;;;;;;24.42;45.90;101726.72;5033849;28;20029;-68
2022/04/14 09:21:58;;;;;;;2.47;0.68;;;;;;;24.42;45.60;101729.47;5035071;28;20032;-68
2022/04/14 09:24:55;;;;;;;1.75;0.45;;;;;;;24.45;45.90;101732.69;5036846;28;20368;-68
2022/04/14 09:27:27;;;;;;;1.55;0.45;;;;;;;24.45;45.64;101732.69;5033628;28;20112;-68
2022/04/14 09:29:54;;;;;;;1.58;0.30;;;;;;;24.48;44.91;101742.44;5035304;28;20392;-67
2022/04/14 09:32:35;;;;;;;2.40;0.40;;;;;;;24.46;44.87;101741.78;5034211;28;20400;-68
2022/04/14 09:35:05;;;;;;;0.98;0.40;;;;;;;24.49;45.48;101741.38;5034700;28;20107;-68
2022/04/14 09:37:30;;;;;;;1.33;0.30;;;;;;;24.52;45.38;101741.00;5034784;28;20025;-69
2022/04/14 09:40:00;;;;;;;2.78;0.57;;;;;;;24.56;44.34;101736.84;5034862;28;20115;-68
2022/04/14 09:42:30;;;;;;;0.90;0.30;;;;;;;24.55;45.27;101740.66;5033436;28;20030;-68
2022/04/14 09:45:17;;;;;;;1.48;0.50;;;;;;;24.54;45.66;101733.44;5034614;28;20017;-68
2022/04/14 09:47:42;;;;;;;1.00;0.40;;;;;;;24.57;44.99;101744.91;5034614;28;20052;-68
2022/04/14 09:50:40;;;;;;;1.88;0.43;;;;;;;24.55;45.71;101740.66;5033304;28;20061;-68
2022/04/14 09:53:06;;;;;;;1.40;0.30;;;;;;;24.48;45.86;101739.69;5034231;28;20041;-69
2022/04/14 09:55:33;;;;;;;0.60;0.40;;;;;;;24.45;46.82;101735.41;5034375;28;20452;-68
2022/04/14 09:58:11;;;;;;;2.10;0.20;;;;;;;24.41;44.95;101744.25;5033218;28;20033;-68
2022/04/14 10:00:51;;;;;;;1.48;0.40;;;;;;;24.37;46.97;101731.94;5034651;28;20029;-68
2022/04/14 10:03:21;;;;;;;0.75;0.20;;;;;;;24.36;46.88;101746.72;5033390;28;20018;-69
2022/04/14 10:05:49;;;;;;;0.55;0.20;;;;;;;24.38;46.92;101744.63;5033492;28;20481;-69
2022/04/14 10:08:15;;;;;;;1.77;0.40;;;;;;;24.35;48.19;101742.25;5045938;28;20064;-69
2022/04/14 10:10:43;;;;;;;3.10;0.50;;;;;;;24.29;45.79;101755.72;5033171;28;20046;-69
2022/04/14 10:13:17;;;;;;;0.73;0.32;;;;;;;24.32;46.75;101756.38;5031772;28;20116;-66
2022/04/14 10:15:45;;;;;;;0.28;0.10;;;;;;;24.35;47.21;101761.47;5032393;28;20022;-66
2022/04/14 10:18:15;;;;;;;1.55;0.22;;;;;;;24.37;47.20;101759.41;5033437;28;20026;-67
2022/04/14 10:20:43;;;;;;;3.47;0.65;;;;;;;24.29;46.69;101769.44;5033151;28;20384;-66
2022/04/14 10:23:11;;;;;;;2.42;0.38;;;;;;;24.29;46.99;101758.44;5032027;28;20052;-67
2022/04/14 10:25:37;;;;;;;3.58;0.45;;;;;;;24.32;47.36;101772.84;5030150;28;20024;-68
2022/04/14 10:28:05;;;;;;;2.20;0.50;;;;;;;24.34;47.07;101765.28;5038448;28;20025;-65
2022/04/14 10:30:30;;;;;;;2.85;0.70;;;;;;;24.32;46.79;101761.84;5034142;28;20041;-67
2022/04/14 10:32:57;;;;;;;4.45;0.98;;;;;;;24.30;46.35;101770.28;5032387;28;20592;-67
2022/04/14 10:35:25;;;;;;;4.00;0.70;;;;;;;24.28;46.27;101767.72;5032175;28;20094;-67
2022/04/14 10:37:57;;;;;;;5.55;1.08;;;;;;;24.30;46.95;101773.91;5032189;28;20368;-67
2022/04/14 10:40:22;;;;;;;2.63;0.40;;;;;;;24.30;46.23;101773.91;5032801;28;20384;-67
2022/04/14 10:42:55;;;;;;;1.05;0.30;;;;;;;24.30;46.53;101768.41;5035037;28;20480;-67
2022/04/14 10:45:23;;;;;;;1.45;0.50;;;;;;;24.29;47.11;101772.19;5037043;28;20380;-67
2022/04/14 10:47:59;;;;;;;1.38;0.40;;;;;;;24.30;46.58;101771.16;5012446;28;20046;-67
2022/04/14 10:50:31;;;;;;;4.47;0.60;;;;;;;24.36;46.20;101776.94;5013321;28;20026;-67
2022/04/14 10:53:18;;;;;;;3.75;1.33;;;;;;;24.36;46.39;101779.69;5021608;28;20030;-66
2022/04/14 10:55:46;;;;;;;3.85;1.08;;;;;;;24.35;46.64;101786.22;5028587;28;20037;-68
2022/04/14 10:58:26;;;;;;;1.75;1.00;;;;;;;24.38;46.45;101783.09;5032566;28;20025;-67
2022/04/14 11:00:52;;;;;;;3.35;0.60;;;;;;;24.42;47.21;101778.94;5013984;28;20408;-66
2022/04/14 11:03:18;;;;;;;4.22;0.52;;;;;;;24.47;47.14;101776.47;5015645;28;20018;-67
2022/04/14 11:05:45;;;;;;;1.45;0.40;;;;;;;24.46;46.17;101774.75;5030413;28;20026;-67
2022/04/14 11:08:19;;;;;;;3.72;0.65;;;;;;;24.47;46.36;101770.97;5032683;28;20029;-67
2022/04/14 11:11:08;;;;;;;3.17;0.65;;;;;;;24.50;45.93;101776.94;5031496;28;20028;-68
2022/04/14 11:13:55;;;;;;;1.88;0.40;;;;;;;24.53;46.46;101775.72;5030999;28;20121;-67
2022/04/14 11:16:40;;;;;;;1.33;0.30;;;;;;;24.50;46.04;101773.31;5032533;28;20104;-68
2022/04/14 11:19:17;;;;;;;2.05;0.43;;;;;;;24.53;46.22;101782.06;5031226;28;20029;-67
2022/04/14 11:22:08;;;;;;;1.27;0.40;;;;;;;24.56;46.46;101780.84;5031970;28;20037;-67
2022/04/14 11:24:37;;;;;;;1.95;0.30;;;;;;;24.55;46.06;101790.13;5032348;28;20013;-67
2022/04/14 11:27:26;;;;;;;2.13;0.22;;;;;;;24.59;45.17;101788.69;5031351;28;20057;-67